Time;durP1;ratioP1;P1;durP2;ratioP2;P2;SDS_P1;SDS_P2;PMS_P1;PMS_P2;Temp;Humidity;BMP_temperature;BMP_pressure;BME280_temperature;BME280_humidity;BME280_pressure;Samples;Min_cycle;Max_cycle;Signal;HPM_P1;HPM_P2
2021/04/25 00:01:48;;;;;;;;;13.50;13.50;;;;;;;;5016720;28;11576;-86
2021/04/25 00:04:15;;;;;;;;;16.75;12.50;;;;;;;;5019740;28;11484;-87
2021/04/25 00:06:43;;;;;;;;;11.25;11.25;;;;;;;;5020152;28;11524;-83
2021/04/25 00:09:10;;;;;;;;;12.50;12.50;;;;;;;;5023172;28;11689;-85
2021/04/25 00:11:38;;;;;;;;;11.25;11.00;;;;;;;;5014072;28;11721;-84
2021/04/25 00:14:06;;;;;;;;;11.00;11.00;;;;;;;;5020109;28;11526;-85
2021/04/25 00:16:34;;;;;;;;;7.75;7.75;;;;;;;;5020038;28;11554;-84
2021/04/25 00:19:01;;;;;;;;;11.25;10.75;;;;;;;;5021887;28;11535;-84
2021/04/25 00:21:28;;;;;;;;;7.50;7.50;;;;;;;;5022522;28;11601;-86
2021/04/25 00:23:55;;;;;;;;;13.00;10.75;;;;;;;;5010641;28;11482;-86
2021/04/25 00:26:23;;;;;;;;;9.00;5.50;;;;;;;;5023062;28;12307;-84
2021/04/25 00:28:49;;;;;;;;;11.00;11.00;;;;;;;;5016470;28;11578;-84
2021/04/25 00:31:17;;;;;;;;;8.00;8.00;;;;;;;;5022353;28;11421;-82
2021/04/25 00:33:44;;;;;;;;;14.00;10.25;;;;;;;;5019603;28;12267;-83
2021/04/25 00:36:12;;;;;;;;;13.00;9.50;;;;;;;;5016208;28;11481;-86
2021/04/25 00:38:39;;;;;;;;;12.25;11.00;;;;;;;;5014235;28;11543;-82
2021/04/25 00:41:06;;;;;;;;;13.50;10.25;;;;;;;;5018512;28;11495;-79
2021/04/25 00:43:34;;;;;;;;;10.50;10.50;;;;;;;;5017182;28;11574;-81
2021/04/25 00:46:01;;;;;;;;;8.00;8.00;;;;;;;;5039872;28;11494;-81
2021/04/25 00:48:29;;;;;;;;;11.25;11.25;;;;;;;;5020835;28;11484;-82
2021/04/25 00:50:56;;;;;;;;;9.00;6.75;;;;;;;;5020511;28;11501;-84
2021/04/25 00:53:23;;;;;;;;;9.25;9.00;;;;;;;;5020263;28;11493;-83
2021/04/25 00:55:51;;;;;;;;;10.50;10.50;;;;;;;;5019595;28;11452;-82
2021/04/25 00:58:19;;;;;;;;;5.75;5.75;;;;;;;;5016898;28;11488;-82
2021/04/25 01:00:46;;;;;;;;;12.00;11.00;;;;;;;;5015988;28;11445;-82
2021/04/25 01:03:14;;;;;;;;;12.25;10.25;;;;;;;;5010684;28;11530;-82
2021/04/25 01:05:42;;;;;;;;;10.25;10.00;;;;;;;;5013080;28;11528;-82
2021/04/25 01:08:09;;;;;;;;;13.00;7.50;;;;;;;;5020103;28;11604;-82
2021/04/25 01:10:36;;;;;;;;;14.00;10.00;;;;;;;;5022174;28;11574;-84
2021/04/25 01:13:03;;;;;;;;;12.00;10.75;;;;;;;;5016674;28;11537;-83
2021/04/25 01:15:30;;;;;;;;;7.75;7.75;;;;;;;;5018644;28;11579;-84
2021/04/25 01:17:57;;;;;;;;;10.00;9.50;;;;;;;;5022081;28;11474;-83
2021/04/25 01:20:24;;;;;;;;;8.00;8.00;;;;;;;;5019317;28;11517;-85
2021/04/25 01:22:52;;;;;;;;;14.50;12.00;;;;;;;;5020145;28;11491;-85
2021/04/25 01:25:21;;;;;;;;;12.25;11.25;;;;;;;;5018200;28;11512;-84
2021/04/25 01:27:48;;;;;;;;;12.25;12.25;;;;;;;;5013895;28;11933;-85
2021/04/25 01:30:18;;;;;;;;;11.00;11.00;;;;;;;;5018236;28;11530;-84
2021/04/25 01:32:45;;;;;;;;;18.25;16.75;;;;;;;;5017477;28;11638;-84
2021/04/25 01:35:15;;;;;;;;;25.50;22.00;;;;;;;;5017665;28;11597;-83
2021/04/25 01:37:42;;;;;;;;;19.50;19.50;;;;;;;;5020791;28;11576;-84
2021/04/25 01:40:13;;;;;;;;;26.25;22.25;;;;;;;;5021137;28;11686;-85
2021/04/25 01:42:40;;;;;;;;;19.25;16.75;;;;;;;;5025087;28;11649;-84
2021/04/25 01:45:15;;;;;;;;;19.25;16.75;;;;;;;;5017295;28;11579;-85
2021/04/25 01:47:43;;;;;;;;;16.00;15.00;;;;;;;;5013960;28;11599;-82
2021/04/25 01:50:10;;;;;;;;;16.00;14.25;;;;;;;;5023894;28;11662;-83
2021/04/25 01:52:37;;;;;;;;;11.50;8.00;;;;;;;;5019901;28;11516;-83
2021/04/25 01:55:05;;;;;;;;;7.50;5.75;;;;;;;;5023821;28;11610;-83
2021/04/25 01:57:34;;;;;;;;;10.25;6.75;;;;;;;;5021245;28;11474;-84
2021/04/25 02:00:01;;;;;;;;;10.00;10.00;;;;;;;;5024318;28;11490;-83
2021/04/25 02:02:31;;;;;;;;;10.75;9.50;;;;;;;;5023959;28;12374;-84
2021/04/25 02:04:57;;;;;;;;;8.25;7.25;;;;;;;;5020800;28;11632;-85
2021/04/25 02:07:24;;;;;;;;;10.75;8.50;;;;;;;;5022362;28;11679;-86
2021/04/25 02:09:51;;;;;;;;;8.75;8.75;;;;;;;;5024589;28;11577;-84
2021/04/25 02:12:18;;;;;;;;;9.50;6.75;;;;;;;;5023799;28;11471;-84
2021/04/25 02:14:47;;;;;;;;;7.75;6.25;;;;;;;;5022214;28;11529;-84
2021/04/25 02:17:13;;;;;;;;;6.50;6.50;;;;;;;;5023434;28;11559;-84
2021/04/25 02:19:40;;;;;;;;;7.00;5.50;;;;;;;;5025832;28;12255;-83
2021/04/25 02:22:07;;;;;;;;;7.00;7.00;;;;;;;;5022539;28;11633;-83
2021/04/25 02:24:34;;;;;;;;;7.50;7.00;;;;;;;;5024982;28;11469;-84
2021/04/25 02:27:00;;;;;;;;;5.75;4.00;;;;;;;;5023833;28;11471;-83
2021/04/25 02:29:27;;;;;;;;;13.75;8.25;;;;;;;;5023491;28;11472;-83
2021/04/25 02:31:55;;;;;;;;;9.00;9.00;;;;;;;;5023701;28;11509;-84
2021/04/25 02:34:21;;;;;;;;;11.00;9.50;;;;;;;;5019410;28;11527;-83
2021/04/25 02:36:48;;;;;;;;;10.50;7.75;;;;;;;;5024163;28;11506;-85
2021/04/25 02:39:15;;;;;;;;;14.50;9.75;;;;;;;;5020109;28;11559;-85
2021/04/25 02:41:42;;;;;;;;;10.75;9.00;;;;;;;;5023522;28;11558;-85
2021/04/25 02:44:09;;;;;;;;;11.25;9.75;;;;;;;;5021466;28;11558;-83
2021/04/25 02:46:36;;;;;;;;;8.50;8.50;;;;;;;;5020643;28;11552;-84
2021/04/25 02:49:04;;;;;;;;;10.25;9.50;;;;;;;;5022355;28;11589;-84
2021/04/25 02:51:31;;;;;;;;;7.50;7.50;;;;;;;;5015255;28;11584;-84
2021/04/25 02:53:58;;;;;;;;;7.75;6.50;;;;;;;;5023476;28;11542;-84
2021/04/25 02:56:25;;;;;;;;;6.50;6.25;;;;;;;;5022920;28;11665;-81
2021/04/25 02:58:52;;;;;;;;;5.25;5.25;;;;;;;;5019535;28;11519;-84
2021/04/25 03:01:19;;;;;;;;;4.00;4.00;;;;;;;;5020480;28;11550;-82
2021/04/25 03:03:47;;;;;;;;;6.00;6.00;;;;;;;;5022094;28;11464;-85
2021/04/25 03:06:15;;;;;;;;;5.75;5.75;;;;;;;;5016973;28;11480;-84
2021/04/25 03:08:42;;;;;;;;;5.00;5.00;;;;;;;;5024709;28;12238;-86
2021/04/25 03:11:09;;;;;;;;;4.50;4.50;;;;;;;;5018978;28;11547;-92
2021/04/25 03:13:36;;;;;;;;;6.00;5.00;;;;;;;;5013032;28;11499;-91
2021/04/25 03:16:03;;;;;;;;;3.50;3.50;;;;;;;;5012745;28;11473;-89
2021/04/25 03:18:30;;;;;;;;;3.00;3.00;;;;;;;;5012372;28;12259;-90
2021/04/25 03:20:57;;;;;;;;;5.75;4.50;;;;;;;;5021771;28;11666;-90
2021/04/25 03:23:25;;;;;;;;;3.00;3.00;;;;;;;;5018096;28;11526;-85
2021/04/25 03:25:52;;;;;;;;;2.25;2.00;;;;;;;;5022641;28;11532;-85
2021/04/25 03:28:20;;;;;;;;;5.00;5.00;;;;;;;;5023385;28;11588;-84
2021/04/25 03:30:47;;;;;;;;;3.00;3.00;;;;;;;;5021683;28;11950;-85
2021/04/25 03:33:14;;;;;;;;;2.00;2.00;;;;;;;;5022099;28;11621;-85
2021/04/25 03:35:41;;;;;;;;;3.75;3.00;;;;;;;;5020863;28;11652;-87
2021/04/25 03:38:08;;;;;;;;;5.25;5.25;;;;;;;;5041301;28;11542;-86
2021/04/25 03:40:36;;;;;;;;;6.00;3.00;;;;;;;;5019978;28;11547;-84
2021/04/25 03:43:03;;;;;;;;;5.25;4.50;;;;;;;;5014829;28;11577;-85
2021/04/25 03:45:30;;;;;;;;;3.50;3.50;;;;;;;;5018556;28;11526;-85
2021/04/25 03:47:57;;;;;;;;;2.00;2.00;;;;;;;;5023060;28;11674;-86
2021/04/25 03:50:26;;;;;;;;;2.50;2.50;;;;;;;;5020730;28;11610;-87
2021/04/25 03:52:54;;;;;;;;;3.00;3.00;;;;;;;;5016658;28;11534;-84
2021/04/25 03:55:23;;;;;;;;;6.25;5.00;;;;;;;;5028185;28;11523;-88
2021/04/25 03:57:51;;;;;;;;;2.25;2.25;;;;;;;;5022080;28;12470;-89
2021/04/25 04:00:19;;;;;;;;;3.50;3.00;;;;;;;;5021447;28;11561;-88
2021/04/25 04:02:46;;;;;;;;;5.00;3.00;;;;;;;;5020112;28;11531;-86
2021/04/25 04:05:14;;;;;;;;;3.50;2.00;;;;;;;;5015445;28;11682;-85
2021/04/25 04:07:41;;;;;;;;;5.75;3.00;;;;;;;;5021689;28;11674;-85
2021/04/25 04:10:10;;;;;;;;;5.75;2.75;;;;;;;;5022384;28;11617;-84
2021/04/25 04:12:37;;;;;;;;;2.00;2.00;;;;;;;;5021983;28;11511;-82
2021/04/25 04:15:07;;;;;;;;;2.25;2.25;;;;;;;;5019268;28;11534;-86
2021/04/25 04:17:34;;;;;;;;;1.75;1.25;;;;;;;;5021408;28;11522;-83
2021/04/25 04:20:01;;;;;;;;;2.00;2.00;;;;;;;;5014990;28;12350;-86
2021/04/25 04:22:28;;;;;;;;;2.25;2.25;;;;;;;;5022154;28;11614;-82
2021/04/25 04:24:55;;;;;;;;;5.25;3.00;;;;;;;;5014476;28;11550;-84
2021/04/25 04:27:22;;;;;;;;;8.75;3.25;;;;;;;;5017217;28;11553;-83
2021/04/25 04:29:52;;;;;;;;;2.75;2.75;;;;;;;;5020938;28;11566;-86
2021/04/25 04:32:20;;;;;;;;;2.25;2.25;;;;;;;;5017515;28;11517;-81
2021/04/25 04:34:47;;;;;;;;;3.25;3.25;;;;;;;;5022381;28;11661;-83
2021/04/25 04:37:14;;;;;;;;;6.50;4.00;;;;;;;;5019693;28;11514;-83
2021/04/25 04:39:41;;;;;;;;;5.50;3.25;;;;;;;;5019634;28;11548;-82
2021/04/25 04:42:08;;;;;;;;;6.00;3.25;;;;;;;;5016502;28;11750;-82
2021/04/25 04:44:34;;;;;;;;;2.75;2.00;;;;;;;;5022229;28;11600;-82
2021/04/25 04:47:01;;;;;;;;;4.25;2.50;;;;;;;;5015183;28;11573;-80
2021/04/25 04:49:30;;;;;;;;;7.25;3.75;;;;;;;;5021795;28;11644;-85
2021/04/25 04:51:56;;;;;;;;;3.25;2.50;;;;;;;;5019092;28;11585;-83
2021/04/25 04:54:24;;;;;;;;;4.00;3.00;;;;;;;;5016975;28;11664;-85
2021/04/25 04:56:51;;;;;;;;;2.50;2.50;;;;;;;;5023520;28;11553;-85
2021/04/25 04:59:17;;;;;;;;;5.00;5.00;;;;;;;;5014857;28;11558;-86
2021/04/25 05:01:44;;;;;;;;;2.00;2.00;;;;;;;;5021404;28;11492;-85
2021/04/25 05:04:11;;;;;;;;;2.00;2.00;;;;;;;;5021525;28;11541;-83
2021/04/25 05:06:39;;;;;;;;;2.00;2.00;;;;;;;;5022580;28;11537;-93
2021/04/25 05:09:07;;;;;;;;;5.50;4.75;;;;;;;;5043813;28;11643;-84
2021/04/25 05:11:33;;;;;;;;;10.75;4.75;;;;;;;;5020401;28;11642;-83
2021/04/25 05:14:00;;;;;;;;;2.00;2.00;;;;;;;;5022612;28;11670;-85
2021/04/25 05:16:27;;;;;;;;;4.00;2.00;;;;;;;;5025843;28;11551;-85
2021/04/25 05:18:54;;;;;;;;;2.00;2.00;;;;;;;;5025921;28;11669;-84
2021/04/25 05:21:22;;;;;;;;;6.00;3.25;;;;;;;;5024962;28;11550;-83
2021/04/25 05:23:50;;;;;;;;;3.75;2.00;;;;;;;;5025293;28;11522;-86
2021/04/25 05:26:17;;;;;;;;;4.75;4.25;;;;;;;;5016576;28;11955;-85
2021/04/25 05:28:43;;;;;;;;;4.75;2.00;;;;;;;;5021135;28;11574;-76
2021/04/25 05:31:11;;;;;;;;;3.25;3.25;;;;;;;;5022828;28;11481;-81
2021/04/25 05:33:38;;;;;;;;;3.25;3.25;;;;;;;;5023527;28;11503;-86
2021/04/25 05:36:05;;;;;;;;;2.00;2.00;;;;;;;;5025887;28;11542;-81
2021/04/25 05:38:32;;;;;;;;;5.75;3.75;;;;;;;;5021221;28;11681;-80
2021/04/25 05:41:00;;;;;;;;;5.50;4.00;;;;;;;;5024186;28;11763;-81
2021/04/25 05:43:27;;;;;;;;;5.75;4.75;;;;;;;;5023739;28;11679;-81
2021/04/25 05:45:54;;;;;;;;;9.25;4.75;;;;;;;;5025179;28;11642;-82
2021/04/25 05:48:21;;;;;;;;;2.75;1.75;;;;;;;;5021532;28;12303;-81
2021/04/25 05:50:48;;;;;;;;;3.25;3.25;;;;;;;;5022183;28;11647;-82
2021/04/25 05:53:14;;;;;;;;;7.25;2.50;;;;;;;;5023348;28;11509;-82
2021/04/25 05:55:44;;;;;;;;;5.75;5.75;;;;;;;;5018237;28;11571;-79
2021/04/25 05:58:11;;;;;;;;;5.75;3.25;;;;;;;;5024749;28;11675;-83
2021/04/25 06:00:39;;;;;;;;;4.50;4.25;;;;;;;;5050652;28;12686;-82
2021/04/25 06:03:06;;;;;;;;;3.50;3.50;;;;;;;;5017240;28;11554;-82
2021/04/25 06:05:34;;;;;;;;;3.75;3.75;;;;;;;;5023505;28;11565;-80
2021/04/25 06:08:03;;;;;;;;;3.50;2.75;;;;;;;;5018982;28;12312;-79
2021/04/25 06:10:30;;;;;;;;;4.00;4.00;;;;;;;;5023893;28;11523;-77
2021/04/25 06:12:57;;;;;;;;;5.00;5.00;;;;;;;;5023481;28;11529;-79
2021/04/25 06:15:25;;;;;;;;;9.00;5.25;;;;;;;;5022326;28;11548;-82
2021/04/25 06:17:53;;;;;;;;;5.00;5.00;;;;;;;;5024136;28;12091;-78
2021/04/25 06:20:21;;;;;;;;;5.50;5.50;;;;;;;;5018883;28;11672;-79
2021/04/25 06:22:48;;;;;;;;;6.25;5.25;;;;;;;;5019805;28;11599;-79
2021/04/25 06:25:17;;;;;;;;;7.25;3.00;;;;;;;;5020573;28;11562;-76
2021/04/25 06:27:44;;;;;;;;;5.25;3.50;;;;;;;;5023859;28;11516;-76
2021/04/25 06:30:13;;;;;;;;;7.00;7.00;;;;;;;;5016216;28;11654;-78
2021/04/25 06:32:41;;;;;;;;;5.25;4.50;;;;;;;;5020258;28;11531;-79
2021/04/25 06:35:11;;;;;;;;;4.50;4.50;;;;;;;;5013462;28;11563;-76
2021/04/25 06:37:38;;;;;;;;;7.00;7.00;;;;;;;;5022004;28;11528;-77
2021/04/25 06:40:06;;;;;;;;;7.00;5.75;;;;;;;;5018869;28;11640;-76
2021/04/25 06:42:33;;;;;;;;;5.75;5.75;;;;;;;;5018199;28;11551;-78
2021/04/25 06:45:00;;;;;;;;;6.75;6.75;;;;;;;;5047637;28;11544;-81
2021/04/25 06:47:27;;;;;;;;;11.75;10.00;;;;;;;;5017723;28;11582;-76
2021/04/25 06:49:55;;;;;;;;;5.50;5.50;;;;;;;;5019927;28;12432;-78
2021/04/25 06:52:25;;;;;;;;;12.00;7.00;;;;;;;;5018779;28;11588;-81
2021/04/25 06:54:52;;;;;;;;;13.00;10.50;;;;;;;;5024354;28;11530;-77
2021/04/25 06:57:21;;;;;;;;;9.00;5.00;;;;;;;;5016256;28;11688;-78
2021/04/25 06:59:48;;;;;;;;;10.75;7.00;;;;;;;;5016537;28;13070;-76
2021/04/25 07:02:15;;;;;;;;;9.50;9.00;;;;;;;;5018125;28;11493;-76
2021/04/25 07:04:42;;;;;;;;;9.75;9.25;;;;;;;;5015333;28;11555;-81
2021/04/25 07:07:10;;;;;;;;;9.50;9.50;;;;;;;;5016861;28;11696;-84
2021/04/25 07:09:37;;;;;;;;;9.00;9.00;;;;;;;;5021195;28;11554;-83
2021/04/25 07:12:04;;;;;;;;;7.25;7.25;;;;;;;;5016767;28;11524;-79
2021/04/25 07:14:31;;;;;;;;;9.00;9.00;;;;;;;;5015360;28;11578;-76
2021/04/25 07:16:58;;;;;;;;;8.50;8.50;;;;;;;;5025309;28;11630;-75
2021/04/25 07:19:25;;;;;;;;;9.75;9.75;;;;;;;;5029607;28;11549;-75
2021/04/25 07:21:53;;;;;;;;;10.75;7.75;;;;;;;;5019631;28;11545;-76
2021/04/25 07:24:21;;;;;;;;;10.00;8.50;;;;;;;;5017982;28;11544;-76
2021/04/25 07:26:48;;;;;;;;;8.50;8.00;;;;;;;;5019964;28;11570;-75
2021/04/25 07:29:17;;;;;;;;;11.50;11.50;;;;;;;;5020040;28;11566;-73
2021/04/25 07:31:44;;;;;;;;;13.50;6.75;;;;;;;;5008082;28;12794;-75
2021/04/25 07:34:11;;;;;;;;;11.00;11.00;;;;;;;;5021748;28;11553;-74
2021/04/25 07:36:38;;;;;;;;;13.50;12.00;;;;;;;;5020689;28;11585;-76
2021/04/25 07:39:05;;;;;;;;;9.00;9.00;;;;;;;;5014826;28;11580;-76
2021/04/25 07:41:34;;;;;;;;;11.00;11.00;;;;;;;;5018528;28;11509;-77
2021/04/25 07:44:01;;;;;;;;;10.75;10.00;;;;;;;;5019555;28;11547;-79
2021/04/25 07:46:28;;;;;;;;;10.75;10.75;;;;;;;;5046075;28;11480;-79
2021/04/25 07:48:55;;;;;;;;;46.00;41.50;;;;;;;;5017713;28;12327;-80
2021/04/25 07:51:22;;;;;;;;;30.00;29.00;;;;;;;;5018310;28;11735;-78
2021/04/25 07:53:51;;;;;;;;;18.50;17.25;;;;;;;;5015769;28;11667;-81
2021/04/25 07:56:19;;;;;;;;;11.50;11.50;;;;;;;;5020423;28;11572;-81
2021/04/25 07:58:47;;;;;;;;;8.00;8.00;;;;;;;;4998332;28;11524;-79
2021/04/25 08:01:15;;;;;;;;;10.25;10.25;;;;;;;;5019186;28;11580;-77
2021/04/25 08:03:41;;;;;;;;;16.50;14.50;;;;;;;;5021181;28;11506;-78
2021/04/25 08:06:08;;;;;;;;;14.25;12.50;;;;;;;;5020208;28;11667;-77
2021/04/25 08:08:35;;;;;;;;;15.25;12.75;;;;;;;;5018613;28;11532;-78
2021/04/25 08:11:02;;;;;;;;;13.75;12.75;;;;;;;;5021327;28;11517;-78
2021/04/25 08:13:29;;;;;;;;;13.75;12.00;;;;;;;;5020224;28;11489;-78
2021/04/25 08:15:57;;;;;;;;;9.00;9.00;;;;;;;;5018013;28;11524;-77
2021/04/25 08:18:24;;;;;;;;;10.25;8.25;;;;;;;;5018023;28;11163;-76
2021/04/25 08:20:51;;;;;;;;;10.00;10.00;;;;;;;;5016176;28;11931;-77
2021/04/25 08:23:18;;;;;;;;;17.25;13.00;;;;;;;;5021598;28;11141;-79
2021/04/25 08:25:45;;;;;;;;;10.50;10.50;;;;;;;;5017629;28;11031;-78
2021/04/25 08:28:12;;;;;;;;;14.25;10.50;;;;;;;;5020835;28;10968;-76
2021/04/25 08:30:39;;;;;;;;;9.00;9.00;;;;;;;;5014774;28;10769;-77
2021/04/25 08:33:08;;;;;;;;;8.00;4.75;;;;;;;;5019512;28;10911;-78
2021/04/25 08:35:35;;;;;;;;;12.50;12.25;;;;;;;;5014965;28;10875;-74
2021/04/25 08:38:02;;;;;;;;;9.75;8.75;;;;;;;;5018006;28;12022;-73
2021/04/25 08:40:29;;;;;;;;;13.50;9.50;;;;;;;;5020367;28;10730;-74
2021/04/25 08:42:56;;;;;;;;;13.00;13.00;;;;;;;;5019428;28;10713;-73
2021/04/25 08:45:22;;;;;;;;;10.50;9.00;;;;;;;;5015244;28;10689;-73
2021/04/25 08:47:55;;;;;;;;;11.25;11.25;;;;;;;;5024730;28;10693;-74
2021/04/25 08:50:24;;;;;;;;;13.50;13.00;;;;;;;;5013806;28;10673;-72
2021/04/25 08:52:51;;;;;;;;;14.00;14.00;;;;;;;;5026743;28;11465;-76
2021/04/25 08:55:18;;;;;;;;;12.50;10.50;;;;;;;;5018182;28;10644;-74
2021/04/25 08:57:45;;;;;;;;;7.25;7.25;;;;;;;;5027636;28;10397;-73
2021/04/25 09:00:14;;;;;;;;;8.00;8.00;;;;;;;;5016174;28;10357;-73
2021/04/25 09:02:41;;;;;;;;;10.75;8.00;;;;;;;;5019703;28;10363;-73
2021/04/25 09:05:09;;;;;;;;;10.75;10.75;;;;;;;;5019979;28;10194;-82
2021/04/25 09:07:37;;;;;;;;;10.00;8.25;;;;;;;;5016765;28;10108;-74
2021/04/25 09:10:07;;;;;;;;;9.25;7.25;;;;;;;;5019800;28;10102;-76
2021/04/25 09:12:37;;;;;;;;;9.50;8.25;;;;;;;;5014153;28;9959;-75
2021/04/25 09:15:27;;;;;;;;;10.75;9.50;;;;;;;;5014731;28;10070;-73
2021/04/25 09:17:56;;;;;;;;;9.25;9.25;;;;;;;;5013556;28;10028;-73
2021/04/25 09:20:33;;;;;;;;;6.50;6.50;;;;;;;;5027145;28;9938;-74
2021/04/25 09:23:02;;;;;;;;;10.75;10.75;;;;;;;;5020426;28;10501;-70
2021/04/25 09:25:29;;;;;;;;;9.00;9.00;;;;;;;;5025670;28;10594;-73
2021/04/25 09:28:10;;;;;;;;;9.50;7.50;;;;;;;;5020115;28;9868;-73
2021/04/25 09:30:37;;;;;;;;;8.75;6.50;;;;;;;;5019914;28;9811;-73
2021/04/25 09:33:06;;;;;;;;;7.50;5.00;;;;;;;;5031214;28;9657;-73
2021/04/25 09:35:33;;;;;;;;;8.00;8.00;;;;;;;;5028194;28;9827;-74
2021/04/25 09:38:10;;;;;;;;;4.00;4.00;;;;;;;;5027015;28;9746;-74
2021/04/25 09:40:42;;;;;;;;;12.25;9.25;;;;;;;;5014879;28;9648;-74
2021/04/25 09:43:11;;;;;;;;;7.75;7.75;;;;;;;;5025226;28;10498;-74
2021/04/25 09:45:39;;;;;;;;;10.25;9.00;;;;;;;;5020987;28;10741;-73
2021/04/25 09:48:21;;;;;;;;;7.33;7.33;;;;;;;;5028448;28;9580;-73
2021/04/25 09:51:13;;;;;;;;;10.67;9.00;;;;;;;;5015119;28;9476;-73
2021/04/25 09:53:43;;;;;;;;;5.67;5.67;;;;;;;;5018326;28;9363;-72
2021/04/25 09:56:11;;;;;;;;;5.67;5.67;;;;;;;;5012285;28;9493;-76
2021/04/25 09:59:00;;;;;;;;;9.00;6.67;;;;;;;;5009735;28;9504;-72
2021/04/25 10:01:27;;;;;;;;;10.33;6.00;;;;;;;;5009918;28;9293;-74
2021/04/25 10:03:54;;;;;;;;;19.25;19.25;;;;;;;;5021325;28;9328;-73
2021/04/25 10:06:22;;;;;;;;;23.50;18.50;;;;;;;;5015487;28;9513;-74
2021/04/25 10:08:52;;;;;;;;;25.00;22.00;;;;;;;;5022614;28;9585;-74
2021/04/25 10:11:20;;;;;;;;;20.25;18.25;;;;;;;;5019731;28;10272;-74
2021/04/25 10:13:51;;;;;;;;;14.00;11.33;;;;;;;;5019551;28;9508;-73
2021/04/25 10:16:19;;;;;;;;;10.00;7.00;;;;;;;;5012795;28;9271;-71
2021/04/25 10:18:47;;;;;;;;;7.00;7.00;;;;;;;;5017349;28;9200;-71
2021/04/25 10:21:14;;;;;;;;;13.25;11.00;;;;;;;;5021638;28;8869;-71
2021/04/25 10:23:41;;;;;;;;;28.75;28.25;;;;;;;;5017738;28;8873;-71
2021/04/25 10:26:13;;;;;;;;;12.00;10.67;;;;;;;;5020809;28;9757;-72
2021/04/25 10:28:45;;;;;;;;;45.60;41.40;;;;;;;;5017831;28;8956;-72
2021/04/25 10:31:15;;;;;;;;;16.00;15.67;;;;;;;;5018828;28;8831;-71
2021/04/25 10:33:57;;;;;;;;;8.00;7.00;;;;;;;;5023569;28;9125;-71
2021/04/25 10:36:25;;;;;;;;;69.25;57.00;;;;;;;;5018162;28;8877;-71
2021/04/25 10:38:54;;;;;;;;;28.00;24.50;;;;;;;;5014975;28;10242;-72
2021/04/25 10:41:25;;;;;;;;;9.75;8.25;;;;;;;;5013607;28;10695;-72
2021/04/25 10:44:02;;;;;;;;;45.67;36.67;;;;;;;;5022143;28;8882;-71
2021/04/25 10:47:13;;;;;;;;;10.50;10.50;;;;;;;;5023283;28;9279;-71
2021/04/25 10:49:41;;;;;;;;;37.00;33.00;;;;;;;;5020026;28;8858;-72
2021/04/25 10:52:30;;;;;;;;;8.00;8.00;;;;;;;;5016239;28;10190;-74
2021/04/25 10:55:28;;;;;;;;;9.00;7.75;;;;;;;;5012662;28;8846;-71
2021/04/25 10:58:19;;;;;;;;;104.75;96.00;;;;;;;;5037003;28;8889;-74
2021/04/25 11:00:46;;;;;;;;;997.75;675.75;;;;;;;;5019794;28;11577;-72
2021/04/25 11:03:15;;;;;;;;;5.00;5.00;;;;;;;;5022734;28;8865;-72
2021/04/25 11:05:43;;;;;;;;;14.00;10.75;;;;;;;;5017982;28;8865;-72
2021/04/25 11:08:39;;;;;;;;;9.25;9.25;;;;;;;;5022797;28;8925;-72
2021/04/25 11:11:08;;;;;;;;;4.50;4.50;;;;;;;;5010711;28;8865;-71
2021/04/25 11:13:45;;;;;;;;;11.50;11.25;;;;;;;;5020506;28;8873;-73
2021/04/25 11:16:26;;;;;;;;;2.75;2.75;;;;;;;;5021544;28;8947;-69
2021/04/25 11:18:55;;;;;;;;;6.00;6.00;;;;;;;;5020239;28;8861;-72
2021/04/25 11:21:55;;;;;;;;;6.50;6.25;;;;;;;;5019699;28;8943;-72
2021/04/25 11:24:43;;;;;;;;;8.50;8.50;;;;;;;;5012726;28;9650;-72
2021/04/25 11:27:25;;;;;;;;;15.00;9.25;;;;;;;;5006079;28;8876;-72
2021/04/25 11:30:01;;;;;;;;;8.75;8.00;;;;;;;;5015990;28;8881;-75
2021/04/25 11:32:35;;;;;;;;;7.75;7.75;;;;;;;;5021135;28;8822;-73
2021/04/25 11:35:10;;;;;;;;;54.25;44.00;;;;;;;;5021389;28;8901;-73
2021/04/25 11:37:37;;;;;;;;;23.75;22.00;;;;;;;;5018981;28;9585;-71
2021/04/25 11:40:07;;;;;;;;;9.00;8.75;;;;;;;;5017679;28;8934;-73
2021/04/25 11:42:37;;;;;;;;;10.25;8.75;;;;;;;;5014290;28;8862;-74
2021/04/25 11:45:07;;;;;;;;;8.00;8.00;;;;;;;;5018051;28;8874;-73
2021/04/25 11:47:34;;;;;;;;;9.50;9.00;;;;;;;;5018533;28;8895;-74
2021/04/25 11:50:03;;;;;;;;;8.50;6.00;;;;;;;;5011382;28;8869;-73
2021/04/25 11:52:32;;;;;;;;;9.00;8.00;;;;;;;;5010877;28;9647;-73
2021/04/25 11:55:07;;;;;;;;;9.25;9.00;;;;;;;;5015716;28;8881;-71
2021/04/25 11:57:35;;;;;;;;;5.00;5.00;;;;;;;;5019361;28;9791;-73
2021/04/25 12:00:07;;;;;;;;;5.25;5.25;;;;;;;;5019354;28;8901;-73
2021/04/25 12:02:35;;;;;;;;;8.50;8.25;;;;;;;;5020355;28;8834;-73
2021/04/25 12:05:06;;;;;;;;;8.25;7.00;;;;;;;;5020328;28;8861;-73
2021/04/25 12:07:38;;;;;;;;;8.00;7.00;;;;;;;;5018159;28;8984;-73
2021/04/25 12:10:15;;;;;;;;;7.00;7.00;;;;;;;;5019779;28;8873;-74
2021/04/25 12:13:00;;;;;;;;;8.50;8.25;;;;;;;;5014766;28;9029;-75
2021/04/25 12:15:29;;;;;;;;;9.50;8.25;;;;;;;;5012093;28;8897;-73
2021/04/25 12:17:57;;;;;;;;;8.75;7.50;;;;;;;;4995731;28;9699;-73
2021/04/25 12:20:24;;;;;;;;;7.50;7.50;;;;;;;;5017507;28;8887;-73
2021/04/25 12:22:51;;;;;;;;;9.00;9.00;;;;;;;;5020284;28;9676;-71
2021/04/25 12:25:20;;;;;;;;;5.75;5.75;;;;;;;;5020409;28;8867;-73
2021/04/25 12:27:53;;;;;;;;;6.00;4.25;;;;;;;;5020530;28;8875;-73
2021/04/25 12:30:23;;;;;;;;;6.75;5.00;;;;;;;;5019562;28;8910;-73
2021/04/25 12:33:02;;;;;;;;;7.25;7.25;;;;;;;;5020017;28;8876;-73
2021/04/25 12:35:30;;;;;;;;;10.25;10.25;;;;;;;;5021234;28;8925;-73
2021/04/25 12:37:57;;;;;;;;;17.75;17.00;;;;;;;;5011157;28;8870;-74
2021/04/25 12:40:29;;;;;;;;;23.00;23.00;;;;;;;;5010122;28;8898;-72
2021/04/25 12:43:07;;;;;;;;;24.25;21.50;;;;;;;;5020116;28;8994;-72
2021/04/25 12:45:37;;;;;;;;;23.75;23.75;;;;;;;;5018607;28;8899;-71
2021/04/25 12:48:35;;;;;;;;;18.75;17.50;;;;;;;;5016462;28;8852;-73
2021/04/25 12:51:08;;;;;;;;;17.50;17.50;;;;;;;;5019680;28;9005;-73
2021/04/25 12:53:42;;;;;;;;;18.00;18.00;;;;;;;;5020527;28;8888;-74
2021/04/25 12:56:26;;;;;;;;;12.00;12.00;;;;;;;;5010945;28;8871;-73
2021/04/25 12:59:02;;;;;;;;;17.00;17.00;;;;;;;;5014378;28;8876;-73
2021/04/25 13:01:30;;;;;;;;;15.25;15.25;;;;;;;;5020654;28;8835;-74
2021/04/25 13:03:59;;;;;;;;;17.00;17.00;;;;;;;;5019387;28;9034;-73
2021/04/25 13:06:30;;;;;;;;;21.00;17.50;;;;;;;;5019931;28;8897;-74
2021/04/25 13:08:58;;;;;;;;;19.50;17.50;;;;;;;;5010933;28;9673;-73
2021/04/25 13:11:36;;;;;;;;;16.25;16.25;;;;;;;;5018628;28;8864;-73
2021/04/25 13:14:07;;;;;;;;;18.50;15.75;;;;;;;;5020748;28;8899;-73
2021/04/25 13:16:34;;;;;;;;;15.75;15.50;;;;;;;;5018808;28;8872;-72
2021/04/25 13:19:02;;;;;;;;;14.00;14.00;;;;;;;;5009522;28;8894;-73
2021/04/25 13:21:39;;;;;;;;;13.75;12.25;;;;;;;;5019403;28;8891;-73
2021/04/25 13:24:09;;;;;;;;;14.50;12.75;;;;;;;;5020276;28;8894;-73
2021/04/25 13:26:36;;;;;;;;;12.50;12.50;;;;;;;;5020419;28;8995;-73
2021/04/25 13:29:05;;;;;;;;;14.25;14.25;;;;;;;;5019044;28;8893;-73
2021/04/25 13:31:32;;;;;;;;;16.50;16.50;;;;;;;;5018197;28;8850;-73
2021/04/25 13:33:59;;;;;;;;;17.00;17.00;;;;;;;;5018146;28;9487;-73
2021/04/25 13:36:27;;;;;;;;;16.75;15.75;;;;;;;;5024153;28;8836;-73
2021/04/25 13:38:57;;;;;;;;;19.75;17.75;;;;;;;;5019077;28;8860;-72
2021/04/25 13:41:25;;;;;;;;;16.25;15.75;;;;;;;;5023392;28;8890;-72
2021/04/25 13:43:51;;;;;;;;;16.25;15.25;;;;;;;;5022720;28;8870;-72
2021/04/25 13:46:19;;;;;;;;;20.25;17.25;;;;;;;;5021516;28;8856;-73
2021/04/25 13:48:45;;;;;;;;;18.00;15.75;;;;;;;;5017648;28;8925;-73
2021/04/25 13:51:12;;;;;;;;;17.75;16.25;;;;;;;;5021656;28;8903;-72
2021/04/25 13:53:41;;;;;;;;;19.75;14.50;;;;;;;;5021905;28;8906;-73
2021/04/25 13:56:08;;;;;;;;;15.00;15.00;;;;;;;;5016150;28;8875;-72
2021/04/25 13:58:35;;;;;;;;;16.25;15.75;;;;;;;;5023360;28;8863;-72
2021/04/25 14:01:02;;;;;;;;;17.25;17.25;;;;;;;;5019001;28;8926;-70
2021/04/25 14:03:29;;;;;;;;;15.25;15.25;;;;;;;;5021029;28;8864;-73
2021/04/25 14:05:55;;;;;;;;;13.25;11.00;;;;;;;;5022062;28;8887;-73
2021/04/25 14:08:22;;;;;;;;;12.00;12.00;;;;;;;;5021044;28;8896;-75
2021/04/25 14:10:50;;;;;;;;;12.50;9.75;;;;;;;;5023064;28;8914;-74
2021/04/25 14:13:17;;;;;;;;;14.75;11.50;;;;;;;;5022684;28;8879;-74
2021/04/25 14:15:44;;;;;;;;;14.25;12.25;;;;;;;;5022973;28;8883;-74
2021/04/25 14:18:13;;;;;;;;;5.50;5.50;;;;;;;;5021516;28;8900;-74
2021/04/25 14:20:43;;;;;;;;;12.75;12.75;;;;;;;;5022080;28;8895;-74
2021/04/25 14:23:09;;;;;;;;;10.25;10.00;;;;;;;;5022285;28;8867;-71
2021/04/25 14:25:36;;;;;;;;;10.50;8.75;;;;;;;;5022900;28;8872;-72
2021/04/25 14:28:06;;;;;;;;;9.00;9.00;;;;;;;;5024247;28;8879;-73
2021/04/25 14:30:36;;;;;;;;;8.50;8.50;;;;;;;;5018038;28;8796;-74
2021/04/25 14:33:05;;;;;;;;;7.25;7.25;;;;;;;;5021988;28;8884;-74
2021/04/25 14:35:32;;;;;;;;;7.75;6.25;;;;;;;;5017597;28;9342;-73
2021/04/25 14:37:59;;;;;;;;;7.00;7.00;;;;;;;;5021943;28;8887;-75
2021/04/25 14:40:28;;;;;;;;;12.00;10.50;;;;;;;;5023109;28;8880;-74
2021/04/25 14:42:56;;;;;;;;;6.75;6.75;;;;;;;;5019547;28;8898;-74
2021/04/25 14:45:25;;;;;;;;;7.00;7.00;;;;;;;;5022783;28;8851;-75
2021/04/25 14:47:54;;;;;;;;;9.25;7.00;;;;;;;;5009283;28;8928;-72